sensor_id;sensor_type;location;lat;lon;timestamp;P1;durP1;ratioP1;P2;durP2;ratioP2
38785;SDS011;24535;45.508;12.252;2024-02-23T00:00:27;35.20;;;27.30;;
38785;SDS011;24535;45.508;12.252;2024-02-23T00:02:57;31.63;;;25.83;;
38785;SDS011;24535;45.508;12.252;2024-02-23T00:05:23;31.15;;;25.45;;
38785;SDS011;24535;45.508;12.252;2024-02-23T00:11:03;35.88;;;27.05;;
38785;SDS011;24535;45.508;12.252;2024-02-23T00:14:12;33.88;;;25.58;;
38785;SDS011;24535;45.508;12.252;2024-02-23T00:23:34;31.95;;;23.05;;
38785;SDS011;24535;45.508;12.252;2024-02-23T00:26:13;34.20;;;23.10;;
38785;SDS011;24535;45.508;12.252;2024-02-23T00:28:49;32.42;;;22.92;;
38785;SDS011;24535;45.508;12.252;2024-02-23T00:34:29;30.88;;;23.30;;
38785;SDS011;24535;45.508;12.252;2024-02-23T00:37:08;32.88;;;23.42;;
38785;SDS011;24535;45.508;12.252;2024-02-23T00:39:52;30.80;;;23.17;;
38785;SDS011;24535;45.508;12.252;2024-02-23T00:42:17;31.00;;;24.13;;
38785;SDS011;24535;45.508;12.252;2024-02-23T00:44:43;33.83;;;24.80;;
38785;SDS011;24535;45.508;12.252;2024-02-23T00:47:08;32.92;;;24.90;;
38785;SDS011;24535;45.508;12.252;2024-02-23T00:49:34;31.15;;;23.45;;
38785;SDS011;24535;45.508;12.252;2024-02-23T00:52:07;27.75;;;21.83;;
38785;SDS011;24535;45.508;12.252;2024-02-23T00:54:34;32.92;;;24.75;;
38785;SDS011;24535;45.508;12.252;2024-02-23T00:57:06;30.83;;;23.38;;
38785;SDS011;24535;45.508;12.252;2024-02-23T01:02:25;27.23;;;20.73;;
38785;SDS011;24535;45.508;12.252;2024-02-23T01:04:50;30.42;;;22.75;;
38785;SDS011;24535;45.508;12.252;2024-02-23T01:07:27;28.33;;;22.50;;
38785;SDS011;24535;45.508;12.252;2024-02-23T01:12:43;28.48;;;21.55;;
38785;SDS011;24535;45.508;12.252;2024-02-23T01:15:08;31.75;;;23.15;;
38785;SDS011;24535;45.508;12.252;2024-02-23T01:17:34;29.08;;;21.90;;
38785;SDS011;24535;45.508;12.252;2024-02-23T01:19:59;26.65;;;21.10;;
38785;SDS011;24535;45.508;12.252;2024-02-23T01:22:47;29.00;;;21.77;;
38785;SDS011;24535;45.508;12.252;2024-02-23T01:25:12;27.83;;;21.23;;
38785;SDS011;24535;45.508;12.252;2024-02-23T01:27:40;25.83;;;21.05;;
38785;SDS011;24535;45.508;12.252;2024-02-23T01:30:17;25.83;;;21.15;;
38785;SDS011;24535;45.508;12.252;2024-02-23T01:32:46;26.27;;;20.20;;
38785;SDS011;24535;45.508;12.252;2024-02-23T01:35:20;26.85;;;20.55;;
38785;SDS011;24535;45.508;12.252;2024-02-23T01:37:53;27.50;;;20.58;;
38785;SDS011;24535;45.508;12.252;2024-02-23T01:40:19;26.27;;;20.45;;
38785;SDS011;24535;45.508;12.252;2024-02-23T01:42:45;31.38;;;21.88;;
38785;SDS011;24535;45.508;12.252;2024-02-23T01:45:20;29.27;;;22.15;;
38785;SDS011;24535;45.508;12.252;2024-02-23T01:47:46;30.20;;;20.55;;
38785;SDS011;24535;45.508;12.252;2024-02-23T01:50:12;32.05;;;22.00;;
38785;SDS011;24535;45.508;12.252;2024-02-23T01:52:38;29.88;;;21.40;;
38785;SDS011;24535;45.508;12.252;2024-02-23T01:55:14;28.58;;;21.50;;
38785;SDS011;24535;45.508;12.252;2024-02-23T01:57:39;30.08;;;22.42;;
38785;SDS011;24535;45.508;12.252;2024-02-23T02:00:05;28.58;;;20.23;;
38785;SDS011;24535;45.508;12.252;2024-02-23T02:02:32;27.67;;;21.83;;
38785;SDS011;24535;45.508;12.252;2024-02-23T02:05:01;29.48;;;21.67;;
38785;SDS011;24535;45.508;12.252;2024-02-23T02:07:26;30.20;;;21.00;;
38785;SDS011;24535;45.508;12.252;2024-02-23T02:09:58;28.75;;;22.75;;
38785;SDS011;24535;45.508;12.252;2024-02-23T02:12:29;25.08;;;20.27;;
38785;SDS011;24535;45.508;12.252;2024-02-23T02:15:07;26.38;;;20.80;;
38785;SDS011;24535;45.508;12.252;2024-02-23T02:17:47;28.83;;;20.67;;
38785;SDS011;24535;45.508;12.252;2024-02-23T02:20:26;27.60;;;20.50;;
38785;SDS011;24535;45.508;12.252;2024-02-23T02:23:07;30.67;;;21.55;;
38785;SDS011;24535;45.508;12.252;2024-02-23T02:25:33;26.50;;;20.65;;
38785;SDS011;24535;45.508;12.252;2024-02-23T02:28:00;28.33;;;20.25;;
38785;SDS011;24535;45.508;12.252;2024-02-23T02:30:26;25.63;;;19.77;;
38785;SDS011;24535;45.508;12.252;2024-02-23T02:32:52;25.40;;;17.77;;
38785;SDS011;24535;45.508;12.252;2024-02-23T02:35:18;23.30;;;17.67;;
38785;SDS011;24535;45.508;12.252;2024-02-23T02:37:46;23.90;;;17.65;;
38785;SDS011;24535;45.508;12.252;2024-02-23T02:40:13;22.77;;;18.10;;
38785;SDS011;24535;45.508;12.252;2024-02-23T02:42:38;23.75;;;18.10;;
38785;SDS011;24535;45.508;12.252;2024-02-23T02:45:04;23.20;;;16.98;;
38785;SDS011;24535;45.508;12.252;2024-02-23T02:47:29;23.83;;;18.48;;
38785;SDS011;24535;45.508;12.252;2024-02-23T02:49:55;25.33;;;18.70;;
38785;SDS011;24535;45.508;12.252;2024-02-23T02:52:30;25.02;;;18.13;;
38785;SDS011;24535;45.508;12.252;2024-02-23T02:54:58;23.63;;;18.38;;
38785;SDS011;24535;45.508;12.252;2024-02-23T02:57:28;26.77;;;18.25;;
38785;SDS011;24535;45.508;12.252;2024-02-23T02:59:54;18.75;;;15.82;;
38785;SDS011;24535;45.508;12.252;2024-02-23T03:02:20;21.60;;;17.58;;
38785;SDS011;24535;45.508;12.252;2024-02-23T03:04:58;22.10;;;17.25;;
38785;SDS011;24535;45.508;12.252;2024-02-23T03:07:49;23.35;;;16.17;;
38785;SDS011;24535;45.508;12.252;2024-02-23T03:10:18;23.45;;;15.48;;
38785;SDS011;24535;45.508;12.252;2024-02-23T03:15:59;19.85;;;13.27;;
38785;SDS011;24535;45.508;12.252;2024-02-23T03:18:25;18.63;;;13.95;;
38785;SDS011;24535;45.508;12.252;2024-02-23T03:20:52;16.67;;;12.77;;
38785;SDS011;24535;45.508;12.252;2024-02-23T03:23:21;17.10;;;12.32;;
38785;SDS011;24535;45.508;12.252;2024-02-23T03:25:46;17.08;;;12.10;;
38785;SDS011;24535;45.508;12.252;2024-02-23T03:28:11;17.02;;;12.88;;
38785;SDS011;24535;45.508;12.252;2024-02-23T03:30:37;13.30;;;11.18;;
38785;SDS011;24535;45.508;12.252;2024-02-23T03:33:02;15.77;;;10.80;;
38785;SDS011;24535;45.508;12.252;2024-02-23T03:35:34;14.98;;;10.60;;
38785;SDS011;24535;45.508;12.252;2024-02-23T03:38:00;15.57;;;11.05;;
38785;SDS011;24535;45.508;12.252;2024-02-23T03:40:25;20.27;;;10.88;;
38785;SDS011;24535;45.508;12.252;2024-02-23T03:42:51;14.43;;;7.97;;
38785;SDS011;24535;45.508;12.252;2024-02-23T03:48:17;14.77;;;7.68;;
38785;SDS011;24535;45.508;12.252;2024-02-23T03:50:43;16.58;;;6.97;;
38785;SDS011;24535;45.508;12.252;2024-02-23T03:53:08;18.58;;;6.35;;
38785;SDS011;24535;45.508;12.252;2024-02-23T03:55:45;14.30;;;6.10;;
38785;SDS011;24535;45.508;12.252;2024-02-23T03:58:10;11.30;;;4.68;;
38785;SDS011;24535;45.508;12.252;2024-02-23T04:00:36;11.05;;;5.38;;
38785;SDS011;24535;45.508;12.252;2024-02-23T04:06:12;11.02;;;4.95;;
38785;SDS011;24535;45.508;12.252;2024-02-23T04:11:19;8.27;;;4.00;;
38785;SDS011;24535;45.508;12.252;2024-02-23T04:16:25;10.70;;;3.85;;
38785;SDS011;24535;45.508;12.252;2024-02-23T04:18:50;12.90;;;3.50;;
38785;SDS011;24535;45.508;12.252;2024-02-23T04:21:28;12.55;;;3.78;;
38785;SDS011;24535;45.508;12.252;2024-02-23T04:24:08;11.95;;;3.47;;
38785;SDS011;24535;45.508;12.252;2024-02-23T04:26:39;12.57;;;3.83;;
38785;SDS011;24535;45.508;12.252;2024-02-23T04:29:04;14.50;;;3.92;;
38785;SDS011;24535;45.508;12.252;2024-02-23T04:31:31;9.57;;;2.65;;
38785;SDS011;24535;45.508;12.252;2024-02-23T04:34:03;13.05;;;2.75;;
38785;SDS011;24535;45.508;12.252;2024-02-23T04:36:28;9.65;;;2.85;;
38785;SDS011;24535;45.508;12.252;2024-02-23T04:39:01;19.00;;;3.63;;
38785;SDS011;24535;45.508;12.252;2024-02-23T04:41:33;10.88;;;3.22;;
38785;SDS011;24535;45.508;12.252;2024-02-23T04:44:15;7.75;;;2.92;;
38785;SDS011;24535;45.508;12.252;2024-02-23T04:46:44;9.98;;;2.85;;
38785;SDS011;24535;45.508;12.252;2024-02-23T04:49:10;5.82;;;2.53;;
38785;SDS011;24535;45.508;12.252;2024-02-23T04:51:36;9.02;;;2.63;;
38785;SDS011;24535;45.508;12.252;2024-02-23T04:54:08;9.00;;;2.67;;
38785;SDS011;24535;45.508;12.252;2024-02-23T04:56:34;10.40;;;2.88;;
38785;SDS011;24535;45.508;12.252;2024-02-23T04:58:59;7.53;;;3.20;;
38785;SDS011;24535;45.508;12.252;2024-02-23T05:01:25;9.65;;;2.80;;
38785;SDS011;24535;45.508;12.252;2024-02-23T05:03:57;16.23;;;3.28;;
38785;SDS011;24535;45.508;12.252;2024-02-23T05:06:32;13.05;;;2.78;;
38785;SDS011;24535;45.508;12.252;2024-02-23T05:08:57;7.65;;;2.40;;
38785;SDS011;24535;45.508;12.252;2024-02-23T05:11:23;13.90;;;2.60;;
38785;SDS011;24535;45.508;12.252;2024-02-23T05:13:51;11.40;;;3.00;;
38785;SDS011;24535;45.508;12.252;2024-02-23T05:16:17;8.03;;;2.80;;
38785;SDS011;24535;45.508;12.252;2024-02-23T05:18:42;9.23;;;2.78;;
38785;SDS011;24535;45.508;12.252;2024-02-23T05:21:14;10.45;;;2.67;;
38785;SDS011;24535;45.508;12.252;2024-02-23T05:23:47;8.88;;;2.83;;
38785;SDS011;24535;45.508;12.252;2024-02-23T05:26:12;13.35;;;2.67;;
38785;SDS011;24535;45.508;12.252;2024-02-23T05:28:38;8.82;;;2.70;;
38785;SDS011;24535;45.508;12.252;2024-02-23T05:31:03;8.48;;;2.63;;
38785;SDS011;24535;45.508;12.252;2024-02-23T05:33:29;12.05;;;2.90;;
38785;SDS011;24535;45.508;12.252;2024-02-23T05:36:04;8.95;;;2.90;;
38785;SDS011;24535;45.508;12.252;2024-02-23T05:38:31;8.13;;;2.75;;
38785;SDS011;24535;45.508;12.252;2024-02-23T05:40:56;7.95;;;2.80;;
38785;SDS011;24535;45.508;12.252;2024-02-23T05:43:31;11.40;;;2.95;;
38785;SDS011;24535;45.508;12.252;2024-02-23T05:46:36;10.20;;;3.25;;
38785;SDS011;24535;45.508;12.252;2024-02-23T05:49:02;7.22;;;2.40;;
38785;SDS011;24535;45.508;12.252;2024-02-23T05:51:29;8.02;;;2.10;;
38785;SDS011;24535;45.508;12.252;2024-02-23T05:53:55;9.43;;;2.95;;
38785;SDS011;24535;45.508;12.252;2024-02-23T05:56:24;8.02;;;2.60;;
38785;SDS011;24535;45.508;12.252;2024-02-23T05:58:50;6.90;;;2.47;;
38785;SDS011;24535;45.508;12.252;2024-02-23T06:01:22;7.05;;;2.53;;
38785;SDS011;24535;45.508;12.252;2024-02-23T06:03:48;9.25;;;2.80;;
38785;SDS011;24535;45.508;12.252;2024-02-23T06:06:27;8.38;;;2.58;;
38785;SDS011;24535;45.508;12.252;2024-02-23T06:08:58;8.02;;;2.90;;
38785;SDS011;24535;45.508;12.252;2024-02-23T06:11:25;9.35;;;2.67;;
38785;SDS011;24535;45.508;12.252;2024-02-23T06:14:02;13.23;;;2.50;;
38785;SDS011;24535;45.508;12.252;2024-02-23T06:16:28;11.52;;;3.25;;
38785;SDS011;24535;45.508;12.252;2024-02-23T06:18:57;13.05;;;3.08;;
38785;SDS011;24535;45.508;12.252;2024-02-23T06:23:58;11.13;;;2.35;;
38785;SDS011;24535;45.508;12.252;2024-02-23T06:26:37;7.03;;;2.72;;
38785;SDS011;24535;45.508;12.252;2024-02-23T06:29:05;8.25;;;2.35;;
38785;SDS011;24535;45.508;12.252;2024-02-23T06:31:31;10.35;;;3.38;;
38785;SDS011;24535;45.508;12.252;2024-02-23T06:33:59;8.75;;;2.80;;
38785;SDS011;24535;45.508;12.252;2024-02-23T06:36:25;13.40;;;3.60;;
38785;SDS011;24535;45.508;12.252;2024-02-23T06:38:50;7.82;;;2.55;;
38785;SDS011;24535;45.508;12.252;2024-02-23T06:41:26;15.80;;;2.90;;
38785;SDS011;24535;45.508;12.252;2024-02-23T06:43:54;8.60;;;2.17;;
38785;SDS011;24535;45.508;12.252;2024-02-23T06:49:17;8.68;;;2.17;;
38785;SDS011;24535;45.508;12.252;2024-02-23T06:51:42;11.50;;;3.03;;
38785;SDS011;24535;45.508;12.252;2024-02-23T06:54:08;16.77;;;2.95;;
38785;SDS011;24535;45.508;12.252;2024-02-23T06:56:36;7.18;;;2.60;;
38785;SDS011;24535;45.508;12.252;2024-02-23T06:59:02;11.38;;;2.80;;
38785;SDS011;24535;45.508;12.252;2024-02-23T07:04:29;6.75;;;2.03;;
38785;SDS011;24535;45.508;12.252;2024-02-23T07:07:06;12.32;;;2.40;;
38785;SDS011;24535;45.508;12.252;2024-02-23T07:12:21;7.57;;;2.10;;
38785;SDS011;24535;45.508;12.252;2024-02-23T07:15:03;14.98;;;2.47;;
38785;SDS011;24535;45.508;12.252;2024-02-23T07:17:35;9.50;;;2.65;;
38785;SDS011;24535;45.508;12.252;2024-02-23T07:20:01;16.10;;;3.35;;
38785;SDS011;24535;45.508;12.252;2024-02-23T07:22:30;6.32;;;2.55;;
38785;SDS011;24535;45.508;12.252;2024-02-23T07:25:09;7.60;;;2.60;;
38785;SDS011;24535;45.508;12.252;2024-02-23T07:27:34;6.38;;;2.42;;
38785;SDS011;24535;45.508;12.252;2024-02-23T07:30:00;10.80;;;2.78;;
38785;SDS011;24535;45.508;12.252;2024-02-23T07:32:26;21.90;;;3.28;;
38785;SDS011;24535;45.508;12.252;2024-02-23T07:34:52;12.70;;;3.13;;
38785;SDS011;24535;45.508;12.252;2024-02-23T07:37:17;12.55;;;2.45;;
38785;SDS011;24535;45.508;12.252;2024-02-23T07:39:43;11.95;;;2.70;;
38785;SDS011;24535;45.508;12.252;2024-02-23T07:42:12;19.75;;;3.33;;
38785;SDS011;24535;45.508;12.252;2024-02-23T07:44:39;10.82;;;3.25;;
38785;SDS011;24535;45.508;12.252;2024-02-23T07:47:08;12.88;;;3.55;;
38785;SDS011;24535;45.508;12.252;2024-02-23T07:49:40;5.40;;;2.47;;
38785;SDS011;24535;45.508;12.252;2024-02-23T07:52:06;14.35;;;2.67;;
38785;SDS011;24535;45.508;12.252;2024-02-23T07:54:35;6.65;;;2.40;;
38785;SDS011;24535;45.508;12.252;2024-02-23T07:57:03;13.87;;;2.50;;
38785;SDS011;24535;45.508;12.252;2024-02-23T07:59:38;10.52;;;2.80;;
38785;SDS011;24535;45.508;12.252;2024-02-23T08:02:10;12.07;;;2.92;;
38785;SDS011;24535;45.508;12.252;2024-02-23T08:04:42;8.93;;;2.63;;
38785;SDS011;24535;45.508;12.252;2024-02-23T08:07:13;8.48;;;2.95;;
38785;SDS011;24535;45.508;12.252;2024-02-23T08:09:39;10.00;;;2.65;;
38785;SDS011;24535;45.508;12.252;2024-02-23T08:12:05;12.95;;;3.05;;
38785;SDS011;24535;45.508;12.252;2024-02-23T08:14:31;6.47;;;2.78;;
38785;SDS011;24535;45.508;12.252;2024-02-23T08:17:10;12.20;;;2.58;;
38785;SDS011;24535;45.508;12.252;2024-02-23T08:19:36;11.50;;;3.30;;
38785;SDS011;24535;45.508;12.252;2024-02-23T08:22:01;14.27;;;3.22;;
38785;SDS011;24535;45.508;12.252;2024-02-23T08:24:28;11.55;;;3.25;;
38785;SDS011;24535;45.508;12.252;2024-02-23T08:26:53;9.07;;;2.60;;
38785;SDS011;24535;45.508;12.252;2024-02-23T08:29:25;9.80;;;3.22;;
38785;SDS011;24535;45.508;12.252;2024-02-23T08:32:05;16.50;;;3.17;;
38785;SDS011;24535;45.508;12.252;2024-02-23T08:34:31;13.07;;;3.38;;
38785;SDS011;24535;45.508;12.252;2024-02-23T08:36:56;12.90;;;2.97;;
38785;SDS011;24535;45.508;12.252;2024-02-23T08:39:25;13.18;;;2.92;;
38785;SDS011;24535;45.508;12.252;2024-02-23T08:41:56;17.90;;;3.50;;
38785;SDS011;24535;45.508;12.252;2024-02-23T08:44:37;10.02;;;2.67;;
38785;SDS011;24535;45.508;12.252;2024-02-23T08:47:11;9.55;;;3.47;;
38785;SDS011;24535;45.508;12.252;2024-02-23T08:49:37;8.45;;;2.92;;
38785;SDS011;24535;45.508;12.252;2024-02-23T08:52:06;11.73;;;3.13;;
38785;SDS011;24535;45.508;12.252;2024-02-23T08:54:31;15.50;;;3.53;;
38785;SDS011;24535;45.508;12.252;2024-02-23T09:05:03;12.57;;;3.55;;
38785;SDS011;24535;45.508;12.252;2024-02-23T09:07:33;11.50;;;3.10;;
38785;SDS011;24535;45.508;12.252;2024-02-23T09:09:58;15.40;;;3.35;;
38785;SDS011;24535;45.508;12.252;2024-02-23T09:12:27;9.23;;;2.92;;
38785;SDS011;24535;45.508;12.252;2024-02-23T09:14:52;18.10;;;3.30;;
38785;SDS011;24535;45.508;12.252;2024-02-23T09:17:18;13.13;;;3.80;;
38785;SDS011;24535;45.508;12.252;2024-02-23T09:19:45;12.25;;;3.08;;
38785;SDS011;24535;45.508;12.252;2024-02-23T09:22:11;16.55;;;3.85;;
38785;SDS011;24535;45.508;12.252;2024-02-23T09:24:46;14.75;;;3.67;;
38785;SDS011;24535;45.508;12.252;2024-02-23T09:27:14;11.32;;;3.08;;
38785;SDS011;24535;45.508;12.252;2024-02-23T09:29:40;14.73;;;4.10;;
38785;SDS011;24535;45.508;12.252;2024-02-23T09:32:09;13.25;;;3.90;;
38785;SDS011;24535;45.508;12.252;2024-02-23T09:34:34;17.23;;;3.65;;
38785;SDS011;24535;45.508;12.252;2024-02-23T09:37:02;17.92;;;3.78;;
38785;SDS011;24535;45.508;12.252;2024-02-23T09:39:27;18.55;;;3.47;;
38785;SDS011;24535;45.508;12.252;2024-02-23T09:41:55;14.32;;;3.38;;
38785;SDS011;24535;45.508;12.252;2024-02-23T09:44:40;12.73;;;3.60;;
38785;SDS011;24535;45.508;12.252;2024-02-23T09:47:13;15.40;;;3.75;;
38785;SDS011;24535;45.508;12.252;2024-02-23T09:52:40;12.95;;;3.17;;
38785;SDS011;24535;45.508;12.252;2024-02-23T09:55:43;9.70;;;2.83;;
38785;SDS011;24535;45.508;12.252;2024-02-23T10:01:25;14.80;;;3.22;;
38785;SDS011;24535;45.508;12.252;2024-02-23T10:07:06;19.98;;;3.70;;
38785;SDS011;24535;45.508;12.252;2024-02-23T10:12:16;12.48;;;3.72;;
38785;SDS011;24535;45.508;12.252;2024-02-23T10:14:42;12.35;;;3.42;;
38785;SDS011;24535;45.508;12.252;2024-02-23T10:22:29;14.35;;;3.70;;
38785;SDS011;24535;45.508;12.252;2024-02-23T10:25:10;10.75;;;3.55;;
38785;SDS011;24535;45.508;12.252;2024-02-23T10:27:48;11.77;;;2.97;;
38785;SDS011;24535;45.508;12.252;2024-02-23T10:33:26;9.20;;;3.40;;
38785;SDS011;24535;45.508;12.252;2024-02-23T10:35:54;14.43;;;3.20;;
38785;SDS011;24535;45.508;12.252;2024-02-23T10:38:32;12.57;;;3.38;;
38785;SDS011;24535;45.508;12.252;2024-02-23T10:40:58;18.85;;;3.95;;
38785;SDS011;24535;45.508;12.252;2024-02-23T10:43:29;13.85;;;3.83;;
38785;SDS011;24535;45.508;12.252;2024-02-23T10:46:12;11.88;;;3.78;;
38785;SDS011;24535;45.508;12.252;2024-02-23T10:48:40;12.73;;;3.90;;
38785;SDS011;24535;45.508;12.252;2024-02-23T10:51:25;17.35;;;4.07;;
38785;SDS011;24535;45.508;12.252;2024-02-23T10:53:55;12.75;;;3.25;;
38785;SDS011;24535;45.508;12.252;2024-02-23T10:56:22;14.80;;;3.53;;
38785;SDS011;24535;45.508;12.252;2024-02-23T10:59:01;12.38;;;3.33;;
38785;SDS011;24535;45.508;12.252;2024-02-23T11:01:36;12.95;;;3.58;;
38785;SDS011;24535;45.508;12.252;2024-02-23T11:09:21;8.43;;;3.40;;
38785;SDS011;24535;45.508;12.252;2024-02-23T11:12:03;17.90;;;3.55;;
38785;SDS011;24535;45.508;12.252;2024-02-23T11:14:30;20.67;;;3.92;;
38785;SDS011;24535;45.508;12.252;2024-02-23T11:17:04;15.85;;;3.38;;
38785;SDS011;24535;45.508;12.252;2024-02-23T11:19:37;11.90;;;3.45;;
38785;SDS011;24535;45.508;12.252;2024-02-23T11:22:10;14.43;;;3.33;;
38785;SDS011;24535;45.508;12.252;2024-02-23T11:24:51;15.77;;;3.15;;
38785;SDS011;24535;45.508;12.252;2024-02-23T11:27:30;14.35;;;3.25;;
38785;SDS011;24535;45.508;12.252;2024-02-23T11:30:03;9.32;;;3.13;;
38785;SDS011;24535;45.508;12.252;2024-02-23T11:35:15;12.27;;;3.35;;
38785;SDS011;24535;45.508;12.252;2024-02-23T11:37:55;14.90;;;3.53;;
38785;SDS011;24535;45.508;12.252;2024-02-23T11:40:30;18.83;;;3.17;;
38785;SDS011;24535;45.508;12.252;2024-02-23T11:42:59;12.57;;;3.80;;
38785;SDS011;24535;45.508;12.252;2024-02-23T11:45:36;12.15;;;3.78;;
38785;SDS011;24535;45.508;12.252;2024-02-23T11:48:02;16.10;;;3.45;;
38785;SDS011;24535;45.508;12.252;2024-02-23T11:50:36;16.60;;;3.67;;
38785;SDS011;24535;45.508;12.252;2024-02-23T11:53:02;16.98;;;3.75;;
38785;SDS011;24535;45.508;12.252;2024-02-23T11:55:30;14.18;;;3.50;;
38785;SDS011;24535;45.508;12.252;2024-02-23T11:57:56;12.57;;;4.00;;
38785;SDS011;24535;45.508;12.252;2024-02-23T12:00:31;10.63;;;3.03;;
38785;SDS011;24535;45.508;12.252;2024-02-23T12:02:57;14.75;;;3.25;;
38785;SDS011;24535;45.508;12.252;2024-02-23T12:05:22;14.73;;;3.38;;
38785;SDS011;24535;45.508;12.252;2024-02-23T12:08:08;14.15;;;4.45;;
38785;SDS011;24535;45.508;12.252;2024-02-23T12:10:57;11.27;;;3.40;;
38785;SDS011;24535;45.508;12.252;2024-02-23T12:13:25;12.77;;;3.15;;
38785;SDS011;24535;45.508;12.252;2024-02-23T12:15:57;8.25;;;3.83;;
38785;SDS011;24535;45.508;12.252;2024-02-23T12:18:25;13.73;;;4.30;;
38785;SDS011;24535;45.508;12.252;2024-02-23T12:21:13;12.95;;;4.55;;
38785;SDS011;24535;45.508;12.252;2024-02-23T12:23:53;12.02;;;4.35;;
38785;SDS011;24535;45.508;12.252;2024-02-23T12:26:18;16.38;;;4.10;;
38785;SDS011;24535;45.508;12.252;2024-02-23T12:28:45;10.27;;;3.70;;
38785;SDS011;24535;45.508;12.252;2024-02-23T12:31:11;10.02;;;3.70;;
38785;SDS011;24535;45.508;12.252;2024-02-23T12:33:43;12.98;;;3.58;;
38785;SDS011;24535;45.508;12.252;2024-02-23T12:36:13;12.18;;;4.32;;
38785;SDS011;24535;45.508;12.252;2024-02-23T12:38:51;13.43;;;4.35;;
38785;SDS011;24535;45.508;12.252;2024-02-23T12:41:17;13.13;;;5.35;;
38785;SDS011;24535;45.508;12.252;2024-02-23T12:43:42;12.50;;;4.45;;
38785;SDS011;24535;45.508;12.252;2024-02-23T12:49:17;9.10;;;3.95;;
38785;SDS011;24535;45.508;12.252;2024-02-23T12:51:46;11.82;;;4.05;;
38785;SDS011;24535;45.508;12.252;2024-02-23T12:54:13;9.10;;;4.43;;
38785;SDS011;24535;45.508;12.252;2024-02-23T12:56:40;9.88;;;4.55;;
38785;SDS011;24535;45.508;12.252;2024-02-23T12:59:06;9.30;;;4.97;;
38785;SDS011;24535;45.508;12.252;2024-02-23T13:01:41;9.38;;;4.60;;
38785;SDS011;24535;45.508;12.252;2024-02-23T13:04:07;13.25;;;4.82;;
38785;SDS011;24535;45.508;12.252;2024-02-23T13:06:44;11.68;;;4.82;;
38785;SDS011;24535;45.508;12.252;2024-02-23T13:09:12;6.88;;;4.70;;
38785;SDS011;24535;45.508;12.252;2024-02-23T13:11:39;12.80;;;4.40;;
38785;SDS011;24535;45.508;12.252;2024-02-23T13:14:05;9.45;;;4.38;;
38785;SDS011;24535;45.508;12.252;2024-02-23T13:16:34;8.93;;;4.25;;
38785;SDS011;24535;45.508;12.252;2024-02-23T13:19:02;14.63;;;5.53;;
38785;SDS011;24535;45.508;12.252;2024-02-23T13:21:28;11.02;;;4.32;;
38785;SDS011;24535;45.508;12.252;2024-02-23T13:23:54;9.02;;;4.65;;
38785;SDS011;24535;45.508;12.252;2024-02-23T13:26:22;9.85;;;4.95;;
38785;SDS011;24535;45.508;12.252;2024-02-23T13:28:48;7.00;;;4.33;;
38785;SDS011;24535;45.508;12.252;2024-02-23T13:31:13;13.23;;;5.18;;
38785;SDS011;24535;45.508;12.252;2024-02-23T13:33:40;6.60;;;4.40;;
38785;SDS011;24535;45.508;12.252;2024-02-23T13:36:10;10.70;;;4.40;;
38785;SDS011;24535;45.508;12.252;2024-02-23T13:38:35;9.27;;;4.35;;
38785;SDS011;24535;45.508;12.252;2024-02-23T13:41:03;10.30;;;4.63;;
38785;SDS011;24535;45.508;12.252;2024-02-23T13:43:30;9.35;;;5.18;;
38785;SDS011;24535;45.508;12.252;2024-02-23T13:45:55;9.10;;;4.80;;
38785;SDS011;24535;45.508;12.252;2024-02-23T13:48:27;6.13;;;4.00;;
38785;SDS011;24535;45.508;12.252;2024-02-23T13:50:52;10.38;;;5.70;;
38785;SDS011;24535;45.508;12.252;2024-02-23T13:53:21;11.73;;;5.25;;
38785;SDS011;24535;45.508;12.252;2024-02-23T13:55:56;6.57;;;4.40;;
38785;SDS011;24535;45.508;12.252;2024-02-23T13:58:35;9.77;;;5.57;;
38785;SDS011;24535;45.508;12.252;2024-02-23T14:01:44;9.48;;;5.40;;
38785;SDS011;24535;45.508;12.252;2024-02-23T14:04:10;9.40;;;5.75;;
38785;SDS011;24535;45.508;12.252;2024-02-23T14:06:36;7.65;;;5.55;;
38785;SDS011;24535;45.508;12.252;2024-02-23T14:09:08;7.03;;;5.25;;
38785;SDS011;24535;45.508;12.252;2024-02-23T14:11:40;8.68;;;5.32;;
38785;SDS011;24535;45.508;12.252;2024-02-23T14:14:21;6.82;;;4.85;;
38785;SDS011;24535;45.508;12.252;2024-02-23T14:16:54;8.63;;;5.60;;
38785;SDS011;24535;45.508;12.252;2024-02-23T14:19:25;9.43;;;5.53;;
38785;SDS011;24535;45.508;12.252;2024-02-23T14:21:51;8.80;;;5.82;;
38785;SDS011;24535;45.508;12.252;2024-02-23T14:24:17;9.57;;;5.55;;
38785;SDS011;24535;45.508;12.252;2024-02-23T14:29:41;9.80;;;5.60;;
38785;SDS011;24535;45.508;12.252;2024-02-23T14:32:06;10.27;;;5.68;;
38785;SDS011;24535;45.508;12.252;2024-02-23T14:34:52;7.03;;;5.60;;
38785;SDS011;24535;45.508;12.252;2024-02-23T14:37:31;8.88;;;5.03;;
38785;SDS011;24535;45.508;12.252;2024-02-23T14:39:56;9.80;;;6.53;;
38785;SDS011;24535;45.508;12.252;2024-02-23T14:42:22;11.82;;;7.18;;
38785;SDS011;24535;45.508;12.252;2024-02-23T14:44:51;10.52;;;6.18;;
38785;SDS011;24535;45.508;12.252;2024-02-23T14:47:22;8.80;;;5.20;;
38785;SDS011;24535;45.508;12.252;2024-02-23T14:49:47;7.47;;;5.35;;
38785;SDS011;24535;45.508;12.252;2024-02-23T14:52:42;7.50;;;5.63;;
38785;SDS011;24535;45.508;12.252;2024-02-23T14:55:21;7.57;;;5.18;;
38785;SDS011;24535;45.508;12.252;2024-02-23T14:57:53;9.05;;;5.65;;
38785;SDS011;24535;45.508;12.252;2024-02-23T15:06:20;7.18;;;4.75;;
38785;SDS011;24535;45.508;12.252;2024-02-23T15:08:47;8.55;;;4.75;;
38785;SDS011;24535;45.508;12.252;2024-02-23T15:11:19;10.23;;;4.40;;
38785;SDS011;24535;45.508;12.252;2024-02-23T15:13:54;5.82;;;3.83;;
38785;SDS011;24535;45.508;12.252;2024-02-23T15:16:23;8.57;;;4.50;;
38785;SDS011;24535;45.508;12.252;2024-02-23T15:19:00;8.95;;;4.43;;
38785;SDS011;24535;45.508;12.252;2024-02-23T15:21:25;8.07;;;4.05;;
38785;SDS011;24535;45.508;12.252;2024-02-23T15:23:53;7.05;;;3.70;;
38785;SDS011;24535;45.508;12.252;2024-02-23T15:26:19;8.45;;;3.72;;
38785;SDS011;24535;45.508;12.252;2024-02-23T15:28:50;5.28;;;3.63;;
38785;SDS011;24535;45.508;12.252;2024-02-23T15:31:16;6.45;;;3.55;;
38785;SDS011;24535;45.508;12.252;2024-02-23T15:33:47;5.50;;;3.30;;
38785;SDS011;24535;45.508;12.252;2024-02-23T15:36:13;5.20;;;3.38;;
38785;SDS011;24535;45.508;12.252;2024-02-23T15:38:40;5.78;;;3.63;;
38785;SDS011;24535;45.508;12.252;2024-02-23T15:41:06;5.38;;;3.70;;
38785;SDS011;24535;45.508;12.252;2024-02-23T15:43:32;4.72;;;3.38;;
38785;SDS011;24535;45.508;12.252;2024-02-23T15:45:57;4.35;;;3.13;;
38785;SDS011;24535;45.508;12.252;2024-02-23T15:48:43;4.63;;;3.20;;
38785;SDS011;24535;45.508;12.252;2024-02-23T15:51:08;7.75;;;4.20;;
38785;SDS011;24535;45.508;12.252;2024-02-23T15:53:34;5.93;;;3.13;;
38785;SDS011;24535;45.508;12.252;2024-02-23T15:56:00;6.20;;;3.10;;
38785;SDS011;24535;45.508;12.252;2024-02-23T16:00:53;7.13;;;3.03;;
38785;SDS011;24535;45.508;12.252;2024-02-23T16:03:19;6.70;;;3.55;;
38785;SDS011;24535;45.508;12.252;2024-02-23T16:05:52;6.82;;;3.00;;
38785;SDS011;24535;45.508;12.252;2024-02-23T16:08:40;5.95;;;3.47;;
38785;SDS011;24535;45.508;12.252;2024-02-23T16:12:01;7.63;;;3.45;;
38785;SDS011;24535;45.508;12.252;2024-02-23T16:14:33;7.40;;;4.32;;
38785;SDS011;24535;45.508;12.252;2024-02-23T16:17:02;4.95;;;3.28;;